Time;durP1;ratioP1;P1;durP2;ratioP2;P2;SDS_P1;SDS_P2;PMS_P1;PMS_P2;Temp;Humidity;BMP_temperature;BMP_pressure;BME280_temperature;BME280_humidity;BME280_pressure;Samples;Min_cycle;Max_cycle;Signal;HPM_P1;HPM_P2
2021/05/17 00:02:15;;;;;;;8.50;4.43;;;;;;;-143.98;100.00;68091.63;6278117;22;20023;-83
2021/05/17 00:04:42;;;;;;;10.95;5.35;;;;;;;-143.98;100.00;68091.63;6279990;22;20167;-84
2021/05/17 00:07:13;;;;;;;8.15;4.70;;;;;;;-143.98;100.00;68091.63;6254053;22;20024;-84
2021/05/17 00:09:40;;;;;;;13.32;5.18;;;;;;;-143.98;100.00;68091.63;6254965;22;20358;-83
2021/05/17 00:12:13;;;;;;;11.93;5.28;;;;;;;-143.98;100.00;68091.63;6254913;22;20083;-84
2021/05/17 00:14:44;;;;;;;7.68;4.40;;;;;;;-143.98;100.00;68091.63;6254886;22;20034;-85
2021/05/17 00:17:10;;;;;;;7.60;4.20;;;;;;;-143.98;100.00;68091.63;6254416;22;20036;-85
2021/05/17 00:19:40;;;;;;;9.10;4.75;;;;;;;-143.98;100.00;68091.63;6280928;22;20437;-84
2021/05/17 00:22:10;;;;;;;7.53;4.60;;;;;;;-143.98;100.00;68091.63;6290750;22;20024;-84
2021/05/17 00:24:37;;;;;;;9.38;4.82;;;;;;;-143.98;100.00;68091.63;6271629;22;20019;-83
2021/05/17 00:27:08;;;;;;;7.25;4.10;;;;;;;-143.98;100.00;68091.63;6270151;22;20035;-84
2021/05/17 00:30:01;;;;;;;5.97;4.35;;;;;;;-143.98;100.00;68091.63;6260046;22;20094;-84
2021/05/17 00:32:28;;;;;;;12.35;5.22;;;;;;;-143.98;100.00;68091.63;6254794;22;20309;-83
2021/05/17 00:34:55;;;;;;;9.02;4.35;;;;;;;-143.98;100.00;68091.63;6280577;22;20034;-85
2021/05/17 00:37:24;;;;;;;9.02;4.97;;;;;;;-143.98;100.00;68091.63;6255057;22;20112;-84
2021/05/17 00:39:51;;;;;;;11.48;5.25;;;;;;;-143.98;100.00;68091.63;6279836;22;20012;-84
2021/05/17 00:42:18;;;;;;;14.02;5.47;;;;;;;-143.98;100.00;68091.63;6255195;22;20034;-84
2021/05/17 00:44:45;;;;;;;9.50;5.28;;;;;;;-143.98;100.00;68091.63;6271906;22;20088;-84
2021/05/17 00:47:16;;;;;;;11.65;4.90;;;;;;;-143.98;100.00;68091.63;6297164;22;20016;-83
2021/05/17 00:49:45;;;;;;;14.68;4.97;;;;;;;-143.98;100.00;68091.63;6295839;22;20066;-84
2021/05/17 00:52:13;;;;;;;9.52;5.07;;;;;;;-143.98;100.00;68091.63;6281245;22;20028;-84
2021/05/17 00:54:40;;;;;;;11.52;5.30;;;;;;;-143.98;100.00;68091.63;6262094;22;20011;-84
2021/05/17 00:57:08;;;;;;;11.65;5.30;;;;;;;-143.98;100.00;68091.63;6270282;22;20066;-84
2021/05/17 00:59:35;;;;;;;8.10;4.85;;;;;;;-143.98;100.00;68091.63;6284456;22;20024;-84
2021/05/17 01:02:03;;;;;;;12.40;5.95;;;;;;;-143.98;100.00;68091.63;6258896;22;20032;-84
2021/05/17 01:04:30;;;;;;;11.50;5.65;;;;;;;-143.98;100.00;68091.63;6283617;22;20027;-84
2021/05/17 01:07:07;;;;;;;12.45;6.15;;;;;;;-143.98;100.00;68091.63;6256496;22;20023;-83
2021/05/17 01:09:34;;;;;;;8.52;5.38;;;;;;;-143.98;100.00;68091.63;6281368;22;20085;-84
2021/05/17 01:12:03;;;;;;;12.43;5.72;;;;;;;-143.98;100.00;68091.63;6255579;22;20090;-83
2021/05/17 01:14:33;;;;;;;10.23;5.63;;;;;;;-143.98;100.00;68091.63;6255539;22;20097;-83
2021/05/17 01:17:02;;;;;;;12.75;5.97;;;;;;;-143.98;100.00;68091.63;6282038;22;20034;-84
2021/05/17 01:19:41;;;;;;;12.75;5.47;;;;;;;-143.98;100.00;68091.63;6282295;22;20210;-83
2021/05/17 01:22:21;;;;;;;9.85;5.25;;;;;;;-143.98;100.00;68091.63;6290980;22;20035;-83
2021/05/17 01:24:48;;;;;;;11.65;5.57;;;;;;;-143.98;100.00;68091.63;6268861;22;20171;-83
2021/05/17 01:27:15;;;;;;;12.00;5.95;;;;;;;-143.98;100.00;68091.63;6281885;22;20028;-84
2021/05/17 01:29:42;;;;;;;10.18;5.65;;;;;;;-143.98;100.00;68091.63;6278714;22;20024;-84
2021/05/17 01:32:10;;;;;;;12.02;5.47;;;;;;;-143.98;100.00;68091.63;6254957;22;20062;-84
2021/05/17 01:34:37;;;;;;;12.25;6.03;;;;;;;-143.98;100.00;68091.63;6281908;22;20312;-84
2021/05/17 01:37:07;;;;;;;14.93;5.95;;;;;;;-143.98;100.00;68091.63;6279158;22;20030;-84
2021/05/17 01:39:39;;;;;;;14.02;6.35;;;;;;;-143.98;100.00;68091.63;6280065;22;20020;-84
2021/05/17 01:42:12;;;;;;;10.15;5.47;;;;;;;-143.98;100.00;68091.63;6279090;22;20161;-84
2021/05/17 01:44:40;;;;;;;12.88;6.40;;;;;;;-143.98;100.00;68091.63;6280604;22;20031;-85
2021/05/17 01:47:08;;;;;;;9.05;6.35;;;;;;;-143.98;100.00;68091.63;6279933;22;20020;-85
2021/05/17 01:49:38;;;;;;;10.82;6.25;;;;;;;-143.98;100.00;68091.63;6279225;22;20086;-85
2021/05/17 01:52:06;;;;;;;10.57;5.90;;;;;;;-143.98;100.00;68091.63;6280331;22;20028;-85
2021/05/17 01:54:39;;;;;;;15.27;6.57;;;;;;;-143.98;100.00;68091.63;6253552;22;20039;-85
2021/05/17 01:57:06;;;;;;;9.15;6.07;;;;;;;-143.98;100.00;68091.63;6252582;22;20336;-85
2021/05/17 01:59:33;;;;;;;11.45;7.05;;;;;;;-143.98;100.00;68091.63;6253576;22;20028;-85
2021/05/17 02:02:07;;;;;;;13.27;6.97;;;;;;;-143.98;100.00;68091.63;6278245;22;20035;-84
2021/05/17 02:04:34;;;;;;;14.02;7.57;;;;;;;-143.98;100.00;68091.63;6280460;22;20034;-85
2021/05/17 02:07:00;;;;;;;13.70;7.25;;;;;;;-143.98;100.00;68091.63;6263156;22;20018;-85
2021/05/17 02:09:32;;;;;;;12.18;7.25;;;;;;;-143.98;100.00;68091.63;6297800;22;20007;-85
2021/05/17 02:12:00;;;;;;;11.82;6.45;;;;;;;-143.98;100.00;68091.63;6298187;22;20060;-83
2021/05/17 02:14:30;;;;;;;13.82;7.65;;;;;;;-143.98;100.00;68091.63;6299515;22;20016;-84
2021/05/17 02:16:57;;;;;;;16.88;7.45;;;;;;;-143.98;100.00;68091.63;6298837;22;20039;-84
2021/05/17 02:19:28;;;;;;;16.27;8.25;;;;;;;-143.98;100.00;68091.63;6283105;22;20412;-83
2021/05/17 02:21:57;;;;;;;14.15;7.95;;;;;;;-143.98;100.00;68091.63;6254309;22;20027;-83
2021/05/17 02:24:24;;;;;;;14.82;7.80;;;;;;;-143.98;100.00;68091.63;6278412;22;20222;-83
2021/05/17 02:26:54;;;;;;;13.98;7.35;;;;;;;-143.98;100.00;68091.63;6278145;22;20035;-85
2021/05/17 02:29:21;;;;;;;13.70;7.65;;;;;;;-143.98;100.00;68091.63;6252241;22;20024;-84
2021/05/17 02:31:48;;;;;;;13.90;8.07;;;;;;;-143.98;100.00;68091.63;6254947;22;20032;-84
2021/05/17 02:34:18;;;;;;;18.25;9.15;;;;;;;-143.98;100.00;68091.63;6268550;22;20115;-84
2021/05/17 02:36:47;;;;;;;19.23;9.88;;;;;;;-143.98;100.00;68091.63;6298733;22;20063;-84
2021/05/17 02:39:16;;;;;;;19.83;10.80;;;;;;;-143.98;100.00;68091.63;6297517;22;20011;-84
2021/05/17 02:41:43;;;;;;;18.40;10.65;;;;;;;-143.98;100.00;68091.63;6265489;22;20319;-84
2021/05/17 02:44:14;;;;;;;16.38;10.13;;;;;;;-143.98;100.00;68091.63;6284978;22;20106;-84
2021/05/17 02:46:41;;;;;;;20.73;11.60;;;;;;;-143.98;100.00;68091.63;6283214;22;20081;-84
2021/05/17 02:49:14;;;;;;;13.30;9.98;;;;;;;-143.98;100.00;68091.63;6258821;22;20024;-84
2021/05/17 02:51:41;;;;;;;18.33;10.38;;;;;;;-143.98;100.00;68091.63;6278719;22;20023;-84
2021/05/17 02:54:27;;;;;;;18.95;10.38;;;;;;;-143.98;100.00;68091.63;6276849;22;20024;-83
2021/05/17 02:56:57;;;;;;;19.27;10.25;;;;;;;-143.98;100.00;68091.63;6254387;22;20024;-84
2021/05/17 02:59:46;;;;;;;18.63;10.55;;;;;;;-143.98;100.00;68091.63;6276693;22;20085;-84
2021/05/17 03:02:17;;;;;;;18.13;10.93;;;;;;;-143.98;100.00;68091.63;6253911;22;20031;-84
2021/05/17 03:04:49;;;;;;;20.23;10.18;;;;;;;-143.98;100.00;68091.63;6277420;22;20189;-83
2021/05/17 03:07:16;;;;;;;22.73;10.60;;;;;;;-143.98;100.00;68091.63;6252920;22;20023;-84
2021/05/17 03:09:46;;;;;;;21.08;10.45;;;;;;;-143.98;100.00;68091.63;6278579;22;20420;-83
2021/05/17 03:12:13;;;;;;;17.35;10.55;;;;;;;-143.98;100.00;68091.63;6278044;22;20023;-83
2021/05/17 03:14:41;;;;;;;21.23;10.57;;;;;;;-143.98;100.00;68091.63;6278828;22;20027;-84
2021/05/17 03:17:11;;;;;;;23.50;10.70;;;;;;;-143.98;100.00;68091.63;6278256;22;20028;-84
2021/05/17 03:19:38;;;;;;;21.30;11.02;;;;;;;-143.98;100.00;68091.63;6269865;22;20066;-84
2021/05/17 03:22:06;;;;;;;20.15;11.02;;;;;;;-143.98;100.00;68091.63;6297798;22;20039;-85
2021/05/17 03:24:35;;;;;;;25.08;11.32;;;;;;;-143.98;100.00;68091.63;6296311;22;20024;-84
2021/05/17 03:27:27;;;;;;;18.35;9.90;;;;;;;-143.98;100.00;68091.63;6257291;22;20455;-84
2021/05/17 03:29:57;;;;;;;18.50;9.68;;;;;;;-143.98;100.00;68091.63;6255421;22;20063;-84
2021/05/17 03:32:26;;;;;;;17.48;10.85;;;;;;;-143.98;100.00;68091.63;6252404;22;20427;-85
2021/05/17 03:34:55;;;;;;;15.55;10.00;;;;;;;-143.98;100.00;68091.63;6280024;22;20023;-84
2021/05/17 03:37:22;;;;;;;16.60;10.15;;;;;;;-143.98;100.00;68091.63;6279198;22;20099;-84
2021/05/17 03:39:50;;;;;;;18.13;9.98;;;;;;;-143.98;100.00;68091.63;6254988;22;20034;-84
2021/05/17 03:42:17;;;;;;;17.17;10.57;;;;;;;-143.98;100.00;68091.63;6250856;22;20030;-84
2021/05/17 03:44:44;;;;;;;16.30;9.13;;;;;;;-143.98;100.00;68091.63;6251451;22;20320;-84
2021/05/17 03:47:11;;;;;;;18.05;10.20;;;;;;;-143.98;100.00;68091.63;6251804;22;20019;-84
2021/05/17 03:49:37;;;;;;;12.98;9.10;;;;;;;-143.98;100.00;68091.63;6252467;22;20028;-84
2021/05/17 03:52:04;;;;;;;16.35;9.93;;;;;;;-143.98;100.00;68091.63;6251742;22;20028;-84
2021/05/17 03:54:32;;;;;;;17.92;10.80;;;;;;;-143.98;100.00;68091.63;6285122;22;20047;-83
2021/05/17 03:56:59;;;;;;;17.98;10.90;;;;;;;-143.98;100.00;68091.63;6296470;22;20053;-84
2021/05/17 03:59:31;;;;;;;18.98;10.25;;;;;;;-143.98;100.00;68091.63;6270353;22;20008;-85
2021/05/17 04:02:04;;;;;;;16.20;10.88;;;;;;;-143.98;100.00;68091.63;6279032;22;20332;-85
2021/05/17 04:04:37;;;;;;;16.05;10.35;;;;;;;-143.98;100.00;68091.63;6255633;22;20038;-83
2021/05/17 04:13:18;;;;;;;17.27;10.73;;;;;;;-143.98;100.00;68091.63;6280310;22;20023;-85
2021/05/17 04:15:22;;;;;;;16.80;10.80;;;;;;;-143.98;100.00;68091.63;6279254;22;20405;-83
2021/05/17 04:17:51;;;;;;;20.80;11.02;;;;;;;-143.98;100.00;68091.63;6253310;22;20024;-84
2021/05/17 04:20:18;;;;;;;17.60;10.35;;;;;;;-143.98;100.00;68091.63;6252551;22;20035;-84
2021/05/17 04:22:52;;;;;;;19.88;10.90;;;;;;;-143.98;100.00;68091.63;6279764;22;20024;-84
2021/05/17 04:25:22;;;;;;;15.90;10.40;;;;;;;-143.98;100.00;68091.63;6253759;22;20037;-84
2021/05/17 04:27:48;;;;;;;22.17;9.77;;;;;;;-143.98;100.00;68091.63;6278015;22;20103;-84
2021/05/17 04:30:17;;;;;;;15.32;9.70;;;;;;;-143.98;100.00;68091.63;6252428;22;20035;-84
2021/05/17 04:32:47;;;;;;;14.50;9.80;;;;;;;-143.98;100.00;68091.63;6278180;22;20031;-84
2021/05/17 04:35:13;;;;;;;15.05;10.98;;;;;;;-143.98;100.00;68091.63;6288247;22;20229;-84
2021/05/17 04:37:47;;;;;;;15.63;10.52;;;;;;;-143.98;100.00;68091.63;6287809;22;20055;-84
2021/05/17 04:40:14;;;;;;;17.33;9.02;;;;;;;-143.98;100.00;68091.63;6275407;22;20038;-84
2021/05/17 04:42:42;;;;;;;12.82;7.57;;;;;;;-143.98;100.00;68091.63;6250595;22;20027;-85
2021/05/17 04:45:13;;;;;;;8.30;6.70;;;;;;;-143.98;100.00;68091.63;6279101;22;20054;-84
2021/05/17 04:47:40;;;;;;;10.82;6.55;;;;;;;-143.98;100.00;68091.63;6276598;22;20030;-85
2021/05/17 04:50:10;;;;;;;11.80;7.47;;;;;;;-143.98;100.00;68091.63;6274030;22;20417;-84
2021/05/17 04:52:37;;;;;;;12.88;6.70;;;;;;;-143.98;100.00;68091.63;6278029;22;20038;-85
2021/05/17 04:55:07;;;;;;;10.50;7.07;;;;;;;-143.98;100.00;68091.63;6274310;22;20027;-84
2021/05/17 04:57:39;;;;;;;10.05;7.30;;;;;;;-143.98;100.00;68091.63;6273846;22;20034;-84
2021/05/17 05:00:15;;;;;;;12.75;7.63;;;;;;;-143.98;100.00;68091.63;6245801;22;20027;-84
2021/05/17 05:02:43;;;;;;;11.85;8.27;;;;;;;-143.98;100.00;68091.63;6271958;22;20380;-84
2021/05/17 05:05:16;;;;;;;17.70;8.90;;;;;;;-143.98;100.00;68091.63;6272090;22;20353;-85
2021/05/17 05:07:47;;;;;;;15.95;7.95;;;;;;;-143.98;100.00;68091.63;6246351;22;20026;-85
2021/05/17 05:10:14;;;;;;;10.13;7.63;;;;;;;-143.98;100.00;68091.63;6269358;22;20028;-85
2021/05/17 05:12:47;;;;;;;8.98;7.18;;;;;;;-143.98;100.00;68091.63;6269832;22;20434;-85
2021/05/17 05:15:15;;;;;;;12.10;6.57;;;;;;;-143.98;100.00;68091.63;6248378;22;20040;-85
2021/05/17 05:17:43;;;;;;;9.65;6.63;;;;;;;-143.98;100.00;68091.63;6248951;22;20024;-85
2021/05/17 05:20:18;;;;;;;12.98;6.78;;;;;;;-143.98;100.00;68091.63;6248535;22;20086;-85
2021/05/17 05:22:45;;;;;;;12.38;6.65;;;;;;;-143.98;100.00;68091.63;6247871;22;20038;-86
2021/05/17 05:25:15;;;;;;;10.82;6.70;;;;;;;-143.98;100.00;68091.63;6248070;22;20043;-85
2021/05/17 05:27:54;;;;;;;11.73;6.13;;;;;;;-143.98;100.00;68091.63;6249996;22;20068;-84
2021/05/17 05:30:30;;;;;;;10.48;6.82;;;;;;;-143.98;100.00;68091.63;6274743;22;20109;-85
2021/05/17 05:33:15;;;;;;;10.57;6.95;;;;;;;-143.98;100.00;68091.63;6250386;22;20023;-85
2021/05/17 05:35:46;;;;;;;11.63;6.37;;;;;;;-143.98;100.00;68091.63;6274867;22;20367;-85
2021/05/17 05:38:14;;;;;;;9.38;6.60;;;;;;;-143.98;100.00;68091.63;6248125;22;20028;-85
2021/05/17 05:40:43;;;;;;;10.57;6.32;;;;;;;-143.98;100.00;68091.63;6272532;22;20042;-86
2021/05/17 05:43:10;;;;;;;10.13;6.85;;;;;;;-143.98;100.00;68091.63;6246942;22;20080;-86
2021/05/17 05:45:44;;;;;;;12.50;6.90;;;;;;;-143.98;100.00;68091.63;6248182;22;20024;-86
2021/05/17 05:48:12;;;;;;;10.00;7.03;;;;;;;-143.98;100.00;68091.63;6249733;22;20069;-86
2021/05/17 05:50:45;;;;;;;9.27;7.03;;;;;;;-143.98;100.00;68091.63;6249244;22;20057;-86
2021/05/17 05:53:16;;;;;;;10.93;7.28;;;;;;;-143.98;100.00;68091.63;6251308;22;20134;-85
2021/05/17 05:55:44;;;;;;;11.90;7.78;;;;;;;-143.98;100.00;68091.63;6247230;22;20034;-86
2021/05/17 05:58:12;;;;;;;11.90;8.00;;;;;;;-143.98;100.00;68091.63;6247078;22;20047;-86
2021/05/17 06:00:42;;;;;;;11.75;7.25;;;;;;;-143.98;100.00;68091.63;6272704;22;20058;-86
2021/05/17 06:03:17;;;;;;;12.90;7.82;;;;;;;-143.98;100.00;68091.63;6253146;22;20030;-86
2021/05/17 06:05:44;;;;;;;11.38;7.55;;;;;;;-143.98;100.00;68091.63;6277846;22;20081;-85
2021/05/17 06:08:11;;;;;;;13.13;7.50;;;;;;;-143.98;100.00;68091.63;6250885;22;20115;-87
2021/05/17 06:10:38;;;;;;;12.00;8.15;;;;;;;-143.98;100.00;68091.63;6274723;22;20058;-84
2021/05/17 06:13:06;;;;;;;13.38;8.73;;;;;;;-143.98;100.00;68091.63;6276478;22;20027;-86
2021/05/17 06:15:33;;;;;;;13.80;8.75;;;;;;;-143.98;100.00;68091.63;6250043;22;20090;-86
2021/05/17 06:18:01;;;;;;;15.20;9.38;;;;;;;-143.98;100.00;68091.63;6253048;22;20040;-85
2021/05/17 06:20:39;;;;;;;13.63;9.45;;;;;;;-143.98;100.00;68091.63;6276660;22;20088;-85
2021/05/17 06:23:07;;;;;;;12.45;8.55;;;;;;;-143.98;100.00;68091.63;6275571;22;20024;-85
2021/05/17 06:25:39;;;;;;;13.23;8.52;;;;;;;-143.98;100.00;68091.63;6256204;22;20024;-86
2021/05/17 06:28:11;;;;;;;14.90;9.52;;;;;;;-143.98;100.00;68091.63;6275461;22;20152;-87
2021/05/17 06:30:46;;;;;;;15.60;10.82;;;;;;;-143.98;100.00;68091.63;6275959;22;20522;-85
2021/05/17 06:33:30;;;;;;;15.73;10.02;;;;;;;-143.98;100.00;68091.63;6255019;22;20023;-85
2021/05/17 06:35:59;;;;;;;18.13;11.10;;;;;;;-143.98;100.00;68091.63;6254200;22;20106;-85
2021/05/17 06:38:29;;;;;;;16.63;9.32;;;;;;;-143.98;100.00;68091.63;6278226;22;20028;-85
2021/05/17 06:40:56;;;;;;;17.33;10.57;;;;;;;-143.98;100.00;68091.63;6282566;22;20436;-85
2021/05/17 06:43:35;;;;;;;13.75;10.45;;;;;;;-143.98;100.00;68091.63;6274856;22;20110;-83
2021/05/17 06:46:09;;;;;;;20.17;10.88;;;;;;;-143.98;100.00;68091.63;6252212;22;20164;-83
2021/05/17 06:48:42;;;;;;;18.55;11.50;;;;;;;-143.98;100.00;68091.63;6250107;22;20081;-81
2021/05/17 06:51:19;;;;;;;16.20;11.43;;;;;;;-143.98;100.00;68091.63;6247713;22;20043;-81
2021/05/17 06:53:50;;;;;;;18.02;11.65;;;;;;;-143.98;100.00;68091.63;6247098;22;20024;-82
2021/05/17 06:56:36;;;;;;;17.05;12.05;;;;;;;-143.98;100.00;68091.63;6245364;22;20032;-82
2021/05/17 06:59:12;;;;;;;18.75;11.27;;;;;;;-143.98;100.00;68091.63;6246468;22;20392;-82
2021/05/17 07:01:42;;;;;;;23.02;13.68;;;;;;;-143.98;100.00;68091.63;6247037;22;20066;-82
2021/05/17 07:04:15;;;;;;;17.38;11.43;;;;;;;-143.98;100.00;68091.63;6271181;22;20032;-84
2021/05/17 07:06:56;;;;;;;21.67;12.18;;;;;;;-143.98;100.00;68091.63;6256646;22;20189;-84
2021/05/17 07:12:49;;;;;;;20.40;11.55;;;;;;;-143.98;100.00;68091.63;6280906;22;20354;-85
2021/05/17 07:15:24;;;;;;;15.18;10.35;;;;;;;-143.98;100.00;68091.63;6280817;22;20055;-85
2021/05/17 07:17:54;;;;;;;16.80;10.63;;;;;;;-143.98;100.00;68091.63;6282767;22;20039;-85
2021/05/17 07:20:29;;;;;;;14.35;10.18;;;;;;;-143.98;100.00;68091.63;6292249;22;20008;-86
2021/05/17 07:26:00;;;;;;;17.88;11.65;;;;;;;-143.98;100.00;68091.63;6282505;22;20024;-85
2021/05/17 07:28:35;;;;;;;12.90;8.80;;;;;;;-143.98;100.00;68091.63;6287078;22;20024;-87
2021/05/17 07:31:06;;;;;;;15.38;9.05;;;;;;;-143.98;100.00;68091.63;6261504;22;20106;-86
2021/05/17 07:33:38;;;;;;;13.40;8.85;;;;;;;-143.98;100.00;68091.63;6284467;22;20047;-86
2021/05/17 07:36:06;;;;;;;14.38;8.43;;;;;;;-143.98;100.00;68091.63;6284325;22;20027;-86
2021/05/17 07:38:40;;;;;;;12.07;8.13;;;;;;;-143.98;100.00;68091.63;6279994;22;20075;-86
2021/05/17 07:41:10;;;;;;;13.23;8.13;;;;;;;-143.98;100.00;68091.63;6253670;22;20023;-85
2021/05/17 07:43:40;;;;;;;14.38;7.90;;;;;;;-143.98;100.00;68091.63;6276916;22;20214;-85
2021/05/17 07:46:07;;;;;;;11.60;8.20;;;;;;;-143.98;100.00;68091.63;6279637;22;20034;-84
2021/05/17 07:51:42;;;;;;;14.82;8.60;;;;;;;-143.98;100.00;68091.63;6286425;22;20251;-84
2021/05/17 07:54:13;;;;;;;12.30;8.90;;;;;;;-143.98;100.00;68091.63;6256076;22;20401;-84
2021/05/17 07:56:59;;;;;;;14.65;8.13;;;;;;;-143.98;100.00;68091.63;6280541;22;20045;-85
2021/05/17 08:00:13;;;;;;;15.50;8.30;;;;;;;-143.98;100.00;68091.63;6281420;22;20023;-86
2021/05/17 08:02:49;;;;;;;12.80;7.90;;;;;;;-143.98;100.00;68091.63;6283856;22;20022;-87
2021/05/17 08:05:50;;;;;;;12.82;8.32;;;;;;;-143.98;100.00;68091.63;6284966;22;20128;-87
2021/05/17 08:08:18;;;;;;;10.63;7.95;;;;;;;-143.98;100.00;68091.63;6258926;22;20023;-87
2021/05/17 08:10:49;;;;;;;13.00;7.88;;;;;;;-143.98;100.00;68091.63;6262198;22;20024;-86
2021/05/17 08:13:28;;;;;;;10.77;6.88;;;;;;;-143.98;100.00;68091.63;6293190;22;20037;-85
2021/05/17 08:16:22;;;;;;;9.75;6.82;;;;;;;-143.98;100.00;68091.63;6274827;22;20026;-85
2021/05/17 08:19:00;;;;;;;14.32;6.45;;;;;;;-143.98;100.00;68091.63;6270492;22;20175;-84
2021/05/17 08:21:27;;;;;;;7.80;5.80;;;;;;;-143.98;100.00;68091.63;6286483;22;20097;-86
2021/05/17 08:23:59;;;;;;;8.45;6.22;;;;;;;-143.98;100.00;68091.63;6282231;22;20054;-86
2021/05/17 08:26:26;;;;;;;8.93;5.35;;;;;;;-143.98;100.00;68091.63;6256132;22;20039;-86
2021/05/17 08:29:02;;;;;;;10.32;5.15;;;;;;;-143.98;100.00;68091.63;6279116;22;20030;-85
2021/05/17 08:31:34;;;;;;;9.55;4.97;;;;;;;-143.98;100.00;68091.63;6253558;22;20028;-86
2021/05/17 08:34:04;;;;;;;8.27;5.13;;;;;;;-143.98;100.00;68091.63;6278106;22;20034;-85
2021/05/17 08:36:54;;;;;;;7.82;5.00;;;;;;;-143.98;100.00;68091.63;6255751;22;20038;-85
2021/05/17 08:39:21;;;;;;;10.25;5.47;;;;;;;-143.98;100.00;68091.63;6275257;22;20299;-84
2021/05/17 08:41:48;;;;;;;11.82;5.65;;;;;;;-143.98;100.00;68091.63;6278600;22;20189;-85
2021/05/17 08:44:19;;;;;;;7.28;5.15;;;;;;;-143.98;100.00;68091.63;6247958;22;20333;-86
2021/05/17 08:46:47;;;;;;;7.40;5.03;;;;;;;-143.98;100.00;68091.63;6270702;22;20039;-85
2021/05/17 08:49:15;;;;;;;11.18;5.13;;;;;;;-143.98;100.00;68091.63;6246864;22;20019;-86
2021/05/17 08:51:43;;;;;;;8.95;5.85;;;;;;;-143.98;100.00;68091.63;6249425;22;20107;-84
2021/05/17 08:54:13;;;;;;;9.38;5.18;;;;;;;-143.98;100.00;68091.63;6274557;22;20038;-85
2021/05/17 08:56:45;;;;;;;8.48;5.25;;;;;;;-143.98;100.00;68091.63;6279906;22;20046;-86
2021/05/17 08:59:15;;;;;;;7.78;5.20;;;;;;;-143.98;100.00;68091.63;6248690;22;20110;-86
2021/05/17 09:01:44;;;;;;;12.68;6.18;;;;;;;-143.98;100.00;68091.63;6251498;22;20058;-85
2021/05/17 09:04:29;;;;;;;10.70;6.18;;;;;;;-143.98;100.00;68091.63;6250182;22;20117;-85
2021/05/17 09:06:59;;;;;;;8.60;5.20;;;;;;;-143.98;100.00;68091.63;6249714;22;20393;-85
2021/05/17 09:09:37;;;;;;;12.32;6.63;;;;;;;-143.98;100.00;68091.63;6250654;22;20034;-86
2021/05/17 09:12:10;;;;;;;7.55;6.00;;;;;;;-143.98;100.00;68091.63;6275678;22;20177;-85
2021/05/17 09:14:39;;;;;;;7.85;5.75;;;;;;;-143.98;100.00;68091.63;6250535;22;20023;-88
2021/05/17 09:17:07;;;;;;;8.45;5.45;;;;;;;-143.98;100.00;68091.63;6249634;22;20071;-85
2021/05/17 09:19:39;;;;;;;13.68;6.65;;;;;;;-143.98;100.00;68091.63;6250145;22;20248;-86
2021/05/17 09:22:29;;;;;;;10.63;5.65;;;;;;;-143.98;100.00;68091.63;6276811;22;20023;-84
2021/05/17 09:24:57;;;;;;;9.77;5.30;;;;;;;-143.98;100.00;68091.63;6275718;22;20047;-85
2021/05/17 09:27:31;;;;;;;8.63;5.47;;;;;;;-143.98;100.00;68091.63;6279199;22;20050;-86
2021/05/17 09:30:04;;;;;;;8.70;5.25;;;;;;;-143.98;100.00;68091.63;6290193;22;20088;-87
2021/05/17 09:32:46;;;;;;;9.57;6.30;;;;;;;-143.98;100.00;68091.63;6292729;22;20012;-85
2021/05/17 09:35:17;;;;;;;11.13;6.38;;;;;;;-143.98;100.00;68091.63;6291322;22;20027;-85
2021/05/17 09:38:04;;;;;;;10.55;6.40;;;;;;;-143.98;100.00;68091.63;6291169;22;20063;-85
2021/05/17 09:40:35;;;;;;;7.05;5.78;;;;;;;-143.98;100.00;68091.63;6287767;22;20039;-86
2021/05/17 09:43:04;;;;;;;8.38;5.57;;;;;;;-143.98;100.00;68091.63;6279256;22;20323;-87
2021/05/17 09:45:45;;;;;;;11.25;5.55;;;;;;;-143.98;100.00;68091.63;6252730;22;20046;-86
2021/05/17 09:48:21;;;;;;;10.50;5.18;;;;;;;-143.98;100.00;68091.63;6252012;22;20027;-87
2021/05/17 09:51:03;;;;;;;7.57;5.03;;;;;;;-143.98;100.00;68091.63;6279896;22;20024;-85
2021/05/17 09:53:33;;;;;;;6.75;3.90;;;;;;;-143.98;100.00;68091.63;6277911;22;20056;-85
2021/05/17 09:56:20;;;;;;;4.65;3.42;;;;;;;-143.98;100.00;68091.63;6287466;22;19999;-85
2021/05/17 09:59:08;;;;;;;7.82;4.20;;;;;;;-143.98;100.00;68091.63;6292458;22;20012;-85
2021/05/17 10:01:35;;;;;;;5.80;3.58;;;;;;;-143.98;100.00;68091.63;6267172;22;20014;-86
2021/05/17 10:04:05;;;;;;;5.10;3.53;;;;;;;-143.98;100.00;68091.63;6270038;22;20020;-88
2021/05/17 10:06:56;;;;;;;4.93;3.28;;;;;;;-143.98;100.00;68091.63;6233012;23;20032;-86
2021/05/17 10:09:33;;;;;;;4.38;2.92;;;;;;;-143.98;100.00;68091.63;6254360;22;20054;-85
2021/05/17 10:12:00;;;;;;;3.83;3.33;;;;;;;-143.98;100.00;68091.63;6253955;23;20043;-86
2021/05/17 10:14:32;;;;;;;5.32;3.47;;;;;;;-143.98;100.00;68091.63;6253564;23;20044;-86
2021/05/17 10:17:29;;;;;;;5.40;3.40;;;;;;;-143.98;100.00;68091.63;6242881;22;20016;-85
2021/05/17 10:20:00;;;;;;;6.18;3.72;;;;;;;-143.98;100.00;68091.63;6236409;22;20052;-87
2021/05/17 10:22:29;;;;;;;5.45;4.30;;;;;;;-143.98;100.00;68091.63;6252531;23;20032;-88
2021/05/17 10:25:13;;;;;;;4.47;3.08;;;;;;;-143.98;100.00;68091.63;6223840;23;20211;-86
2021/05/17 10:27:45;;;;;;;6.05;3.00;;;;;;;-143.98;100.00;68091.63;6255528;22;20024;-86
2021/05/17 10:30:20;;;;;;;6.68;3.88;;;;;;;-143.98;100.00;68091.63;6259766;22;20083;-86
2021/05/17 10:32:59;;;;;;;8.10;4.13;;;;;;;-143.98;100.00;68091.63;6249275;22;20035;-87
2021/05/17 10:35:53;;;;;;;8.10;4.35;;;;;;;-143.98;100.00;68091.63;6224659;23;20215;-85
2021/05/17 10:38:47;;;;;;;6.10;3.50;;;;;;;-143.98;100.00;68091.63;6248539;23;20028;-87
2021/05/17 10:41:35;;;;;;;4.85;3.47;;;;;;;-143.98;100.00;68091.63;6226372;23;20283;-87
2021/05/17 10:46:50;;;;;;;6.18;4.50;;;;;;;-143.98;100.00;68091.63;6247907;23;20115;-86
2021/05/17 10:49:33;;;;;;;6.07;4.90;;;;;;;-143.98;100.00;68091.63;6249367;23;20066;-86
2021/05/17 10:52:06;;;;;;;6.93;5.00;;;;;;;-143.98;100.00;68091.63;6247242;23;20024;-85
2021/05/17 10:54:38;;;;;;;10.65;5.70;;;;;;;-143.98;100.00;68091.63;6248881;23;20032;-86
2021/05/17 10:57:31;;;;;;;5.93;5.32;;;;;;;-143.98;100.00;68091.63;6252792;22;20068;-87
2021/05/17 11:02:45;;;;;;;8.07;5.10;;;;;;;-143.98;100.00;68091.63;6249731;23;20509;-86
2021/05/17 11:05:19;;;;;;;6.93;5.65;;;;;;;-143.98;100.00;68091.63;6220559;23;20028;-87
2021/05/17 11:08:04;;;;;;;7.05;5.20;;;;;;;-143.98;100.00;68091.63;6222779;23;20020;-87
2021/05/17 11:10:45;;;;;;;9.13;6.30;;;;;;;-143.98;100.00;68091.63;6248298;23;20448;-86
2021/05/17 11:13:40;;;;;;;8.90;5.90;;;;;;;-143.98;100.00;68091.63;6247027;23;20032;-86
2021/05/17 11:16:21;;;;;;;6.93;5.25;;;;;;;-143.98;100.00;68091.63;6224142;23;20028;-86
2021/05/17 11:18:51;;;;;;;9.15;6.68;;;;;;;-143.98;100.00;68091.63;6245050;23;20369;-86
2021/05/17 11:21:22;;;;;;;8.68;7.25;;;;;;;-143.98;100.00;68091.63;6221065;23;20306;-85
2021/05/17 11:23:53;;;;;;;8.98;7.63;;;;;;;-143.98;100.00;68091.63;6246775;23;20016;-87
2021/05/17 11:26:23;;;;;;;11.20;9.57;;;;;;;-143.98;100.00;68091.63;6242176;23;20114;-86
2021/05/17 11:28:51;;;;;;;8.23;5.45;;;;;;;-143.98;100.00;68091.63;6219930;23;20075;-85
2021/05/17 11:31:45;;;;;;;8.70;5.20;;;;;;;-143.98;100.00;68091.63;6246137;23;20115;-86
2021/05/17 11:34:15;;;;;;;7.03;5.28;;;;;;;-143.98;100.00;68091.63;6246151;23;20046;-86
2021/05/17 11:36:56;;;;;;;9.27;4.90;;;;;;;-143.98;100.00;68091.63;6224964;23;20024;-87
2021/05/17 11:39:28;;;;;;;9.57;4.43;;;;;;;-143.98;100.00;68091.63;6244630;23;20116;-86
2021/05/17 11:41:58;;;;;;;7.63;5.28;;;;;;;-143.98;100.00;68091.63;6218613;23;20406;-85
2021/05/17 11:44:56;;;;;;;12.00;7.68;;;;;;;-143.98;100.00;68091.63;6240499;23;20162;-79
2021/05/17 11:47:30;;;;;;;8.35;5.18;;;;;;;-143.98;100.00;68091.63;6214911;23;20023;-85